createdAt,value
2019-02-04T00:02:16.547Z,99.90
2019-02-04T00:04:46.636Z,99.90
2019-02-04T00:07:16.866Z,99.90
2019-02-04T00:09:46.869Z,99.90
2019-02-04T00:12:29.187Z,99.90
2019-02-04T00:15:00.965Z,99.90
2019-02-04T00:17:32.304Z,99.90
2019-02-04T00:20:14.445Z,99.90
2019-02-04T00:22:44.567Z,99.90
2019-02-04T00:25:14.807Z,99.90
2019-02-04T00:27:44.795Z,99.90
2019-02-04T00:30:16.338Z,99.90
2019-02-04T00:32:46.457Z,99.90
2019-02-04T00:35:17.126Z,99.90
2019-02-04T00:37:59.229Z,99.90
2019-02-04T00:40:30.328Z,99.90
2019-02-04T00:43:00.322Z,99.90
2019-02-04T00:45:30.600Z,99.90
2019-02-04T00:48:00.616Z,99.90
2019-02-04T00:50:30.691Z,99.90
2019-02-04T00:53:01.008Z,99.90
2019-02-04T00:55:31.172Z,99.90
2019-02-04T00:58:02.383Z,99.90
2019-02-04T01:00:33.833Z,99.90
2019-02-04T01:03:05.292Z,99.90
2019-02-04T01:05:36.793Z,99.90
2019-02-04T01:08:06.831Z,99.90
2019-02-04T01:10:37.176Z,99.90
2019-02-04T01:13:07.371Z,99.90
2019-02-04T01:15:37.732Z,99.90
2019-02-04T01:18:07.898Z,99.90
2019-02-04T01:20:38.581Z,99.90
2019-02-04T01:23:09.671Z,99.90
2019-02-04T01:25:40.020Z,99.90
2019-02-04T01:28:10.240Z,99.90
2019-02-04T01:30:40.383Z,99.90
2019-02-04T01:33:11.146Z,99.90
2019-02-04T01:35:41.286Z,99.90
2019-02-04T01:38:11.330Z,99.90
2019-02-04T01:40:41.425Z,99.90
2019-02-04T01:43:11.735Z,99.90
2019-02-04T01:45:41.760Z,99.90
2019-02-04T01:48:13.459Z,99.90
2019-02-04T01:50:43.653Z,99.90
2019-02-04T01:53:13.720Z,99.90
2019-02-04T01:55:43.691Z,99.90
2019-02-04T01:58:14.875Z,99.90
2019-02-04T02:00:45.114Z,99.90
2019-02-04T02:03:15.122Z,99.90
2019-02-04T02:05:45.176Z,99.90
2019-02-04T02:08:15.399Z,99.90
2019-02-04T02:10:45.549Z,99.90
2019-02-04T02:13:15.933Z,99.90
2019-02-04T02:15:45.907Z,99.90
2019-02-04T02:18:15.953Z,99.90
2019-02-04T02:20:46.026Z,99.90
2019-02-04T02:23:15.997Z,99.90
2019-02-04T02:25:46.078Z,99.90
2019-02-04T02:28:16.032Z,99.90
2019-02-04T02:30:45.993Z,99.90
2019-02-04T02:33:16.090Z,99.90
2019-02-04T02:35:46.089Z,99.90
2019-02-04T02:38:16.304Z,99.90
2019-02-04T02:40:46.785Z,99.90
2019-02-04T02:43:16.842Z,99.90
2019-02-04T02:45:46.980Z,99.90
2019-02-04T02:48:17.494Z,99.90
2019-02-04T02:50:47.530Z,99.90
2019-02-04T02:53:17.663Z,99.90
2019-02-04T02:55:48.021Z,99.90
2019-02-04T02:58:18.145Z,99.90
2019-02-04T03:00:48.160Z,99.90
2019-02-04T03:03:18.124Z,99.90
2019-02-04T03:05:48.227Z,99.90
2019-02-04T03:08:18.686Z,99.90
2019-02-04T03:10:48.778Z,99.90
2019-02-04T03:13:18.905Z,99.90
2019-02-04T03:15:48.963Z,99.90
2019-02-04T03:18:19.112Z,99.90
2019-02-04T03:20:49.461Z,99.90
2019-02-04T03:23:19.422Z,99.90
2019-02-04T03:25:49.426Z,99.90
2019-02-04T03:28:19.368Z,99.90
2019-02-04T03:30:50.957Z,99.90
2019-02-04T03:33:20.986Z,99.90
2019-02-04T03:35:51.078Z,99.90
2019-02-04T03:38:21.162Z,99.90
2019-02-04T03:40:51.246Z,99.90
2019-02-04T03:43:21.439Z,99.90
2019-02-04T03:45:51.518Z,99.90
2019-02-04T03:48:21.887Z,99.90
2019-02-04T03:50:52.537Z,99.90
2019-02-04T03:53:22.559Z,99.90
2019-02-04T03:55:52.745Z,99.90
2019-02-04T03:58:23.002Z,99.90
2019-02-04T04:00:53.479Z,99.90
2019-02-04T04:03:23.539Z,99.90
2019-02-04T04:05:53.675Z,99.90
2019-02-04T04:08:23.748Z,99.90
2019-02-04T04:10:53.785Z,99.90
2019-02-04T04:13:25.320Z,99.90
2019-02-04T04:15:55.301Z,99.90
2019-02-04T04:18:25.623Z,99.90
2019-02-04T04:20:55.776Z,99.90
2019-02-04T04:23:25.713Z,99.90
2019-02-04T04:25:55.675Z,99.90
2019-02-04T04:28:25.685Z,99.90
2019-02-04T04:30:55.802Z,99.90
2019-02-04T04:33:25.791Z,99.90
2019-02-04T04:35:55.998Z,99.90
2019-02-04T04:38:25.920Z,99.90
2019-02-04T04:40:56.098Z,99.90
2019-02-04T04:43:26.072Z,99.90
2019-02-04T04:45:56.092Z,99.90
2019-02-04T04:48:26.846Z,99.90
2019-02-04T04:50:57.038Z,99.90
2019-02-04T04:53:27.030Z,99.90
2019-02-04T04:55:57.123Z,99.90
2019-02-04T04:58:27.415Z,99.90
2019-02-04T05:00:57.583Z,99.90
2019-02-04T05:03:27.695Z,99.90
2019-02-04T05:05:58.903Z,99.90
2019-02-04T05:08:29.182Z,99.90
2019-02-04T05:11:00.963Z,99.90
2019-02-04T05:13:30.990Z,99.90
2019-02-04T05:16:01.068Z,99.90
2019-02-04T05:18:37.713Z,99.90
2019-02-04T05:21:03.406Z,99.90
2019-02-04T05:23:33.616Z,99.90
2019-02-04T05:26:04.862Z,99.90
2019-02-04T05:28:34.780Z,99.90
2019-02-04T05:31:04.843Z,99.90
2019-02-04T05:33:35.012Z,99.90
2019-02-04T05:36:05.230Z,99.90
2019-02-04T05:38:35.359Z,99.90
2019-02-04T05:41:05.789Z,99.90
2019-02-04T05:43:35.902Z,99.90
2019-02-04T05:46:06.139Z,99.90
2019-02-04T05:48:36.152Z,99.90
2019-02-04T05:51:06.197Z,99.90
2019-02-04T05:53:36.293Z,99.90
2019-02-04T05:56:06.628Z,99.90
2019-02-04T05:58:36.899Z,99.90
2019-02-04T06:01:07.432Z,99.90
2019-02-04T06:03:37.601Z,99.90
2019-02-04T06:06:07.631Z,99.90
2019-02-04T06:08:37.784Z,99.90
2019-02-04T06:11:07.973Z,99.90
2019-02-04T06:13:38.179Z,99.90
2019-02-04T06:16:08.484Z,99.90
2019-02-04T06:18:38.477Z,99.90
2019-02-04T06:21:08.636Z,99.90
2019-02-04T06:23:38.695Z,99.90
2019-02-04T06:26:08.797Z,99.90
2019-02-04T06:28:39.068Z,99.90
2019-02-04T06:31:09.146Z,99.90
2019-02-04T06:33:39.146Z,99.90
2019-02-04T06:36:09.202Z,99.90
2019-02-04T06:38:39.230Z,99.90
2019-02-04T06:41:09.512Z,99.90
2019-02-04T06:43:39.513Z,99.90
2019-02-04T06:46:10.539Z,99.90
2019-02-04T06:48:40.479Z,99.90
2019-02-04T06:51:10.860Z,99.90
2019-02-04T06:53:40.946Z,99.90
2019-02-04T06:56:11.285Z,99.90
2019-02-04T06:58:42.303Z,99.90
2019-02-04T07:01:12.960Z,99.90
2019-02-04T07:03:43.118Z,99.90
2019-02-04T07:06:14.861Z,99.90
2019-02-04T07:08:45.737Z,99.90
2019-02-04T07:11:15.808Z,99.90
2019-02-04T07:13:45.981Z,99.90
2019-02-04T07:16:16.353Z,99.90
2019-02-04T07:18:46.632Z,99.90
2019-02-04T07:21:17.188Z,99.90
2019-02-04T07:23:47.368Z,99.90
2019-02-04T07:26:19.444Z,99.90
2019-02-04T07:28:49.575Z,99.90
2019-02-04T07:31:19.711Z,99.90
2019-02-04T07:33:49.924Z,99.90
2019-02-04T07:36:20.424Z,99.90
2019-02-04T07:38:50.643Z,99.90
2019-02-04T07:41:22.458Z,99.90
2019-02-04T07:43:53.983Z,99.90
2019-02-04T07:46:25.067Z,99.90
2019-02-04T07:48:55.451Z,99.90
2019-02-04T07:51:27.330Z,99.90
2019-02-04T07:53:57.358Z,99.90
2019-02-04T07:56:27.559Z,99.90
2019-02-04T07:58:57.660Z,99.90
2019-02-04T08:01:27.816Z,99.90
2019-02-04T08:03:58.553Z,99.90
2019-02-04T08:06:28.623Z,99.90
2019-02-04T08:08:58.998Z,99.90
2019-02-04T08:11:29.288Z,99.90
2019-02-04T08:13:59.426Z,99.90
2019-02-04T08:16:30.195Z,99.90
2019-02-04T08:19:00.299Z,99.90
2019-02-04T08:21:30.492Z,99.90
2019-02-04T08:24:00.795Z,99.90
2019-02-04T08:26:31.083Z,99.90
2019-02-04T08:29:01.179Z,99.90
2019-02-04T08:31:33.006Z,99.90
2019-02-04T08:34:06.025Z,99.90
2019-02-04T08:39:10.112Z,99.90
2019-02-04T08:41:40.235Z,99.90
2019-02-04T08:44:10.696Z,99.90
2019-02-04T08:46:40.881Z,99.90
2019-02-04T08:49:11.271Z,99.90
2019-02-04T08:51:41.374Z,99.90
2019-02-04T08:54:11.620Z,99.90
2019-02-04T08:56:43.126Z,99.90
2019-02-04T08:59:13.417Z,99.90
2019-02-04T09:01:43.619Z,99.90
2019-02-04T09:04:13.855Z,99.90
2019-02-04T09:06:44.140Z,99.90
2019-02-04T09:09:15.140Z,99.90
2019-02-04T09:11:45.579Z,99.90
2019-02-04T09:14:15.830Z,99.90
2019-02-04T09:16:47.350Z,99.90
2019-02-04T09:19:17.496Z,99.90
2019-02-04T09:21:49.349Z,99.90
2019-02-04T09:24:20.461Z,99.90
2019-02-04T09:26:50.697Z,99.90
2019-02-04T09:29:20.808Z,99.90
2019-02-04T09:31:50.920Z,99.90
2019-02-04T09:34:23.463Z,99.90
2019-02-04T09:37:14.988Z,99.90
2019-02-04T09:39:46.470Z,99.90
2019-02-04T09:42:25.103Z,99.90
2019-02-04T09:45:09.661Z,99.90
2019-02-04T09:47:49.499Z,99.90
2019-02-04T09:50:35.209Z,99.90
2019-02-04T09:53:09.551Z,99.90
2019-02-04T09:55:40.049Z,99.90
2019-02-04T09:58:10.334Z,99.90
2019-02-04T10:00:40.445Z,99.90
2019-02-04T10:03:10.672Z,99.90
2019-02-04T10:05:41.143Z,99.90
2019-02-04T10:08:11.320Z,99.90
2019-02-04T10:10:42.492Z,99.90
2019-02-04T10:13:12.811Z,99.90
2019-02-04T10:15:45.686Z,99.90
2019-02-04T10:18:15.081Z,99.90
2019-02-04T10:20:45.792Z,99.90
2019-02-04T10:23:27.347Z,99.90
2019-02-04T10:25:58.986Z,99.90
2019-02-04T10:28:29.326Z,99.90
2019-02-04T10:31:00.947Z,99.90
2019-02-04T10:33:31.402Z,99.90
2019-02-04T10:36:01.428Z,99.90
2019-02-04T10:38:31.608Z,99.90
2019-02-04T10:41:03.090Z,99.90
2019-02-04T10:43:33.721Z,99.90
2019-02-04T10:46:04.762Z,99.90
2019-02-04T10:48:35.340Z,99.90
2019-02-04T10:51:05.752Z,99.90
2019-02-04T10:53:39.474Z,99.90
2019-02-04T10:56:09.918Z,99.90
2019-02-04T10:58:45.498Z,99.90
2019-02-04T11:01:15.601Z,99.90
2019-02-04T11:03:45.840Z,99.90
2019-02-04T11:06:16.075Z,99.90
2019-02-04T11:08:46.366Z,99.90
2019-02-04T11:11:16.405Z,99.90
2019-02-04T11:13:58.153Z,99.90
2019-02-04T11:16:28.448Z,99.90
2019-02-04T11:18:58.694Z,99.90
2019-02-04T11:21:29.085Z,99.90
2019-02-04T11:24:00.084Z,99.90
2019-02-04T11:26:30.485Z,99.90
2019-02-04T11:29:02.015Z,99.90
2019-02-04T11:31:32.202Z,99.90
2019-02-04T11:34:08.624Z,99.90
2019-02-04T11:36:46.479Z,99.90
2019-02-04T11:39:42.356Z,99.90
2019-02-04T11:42:13.634Z,99.90
2019-02-04T11:44:43.761Z,99.90
2019-02-04T11:47:14.000Z,99.90
2019-02-04T11:49:44.106Z,99.90
2019-02-04T11:52:14.166Z,99.90
2019-02-04T11:54:44.202Z,99.90
2019-02-04T11:57:14.745Z,99.90
2019-02-04T11:59:44.779Z,99.90
2019-02-04T12:02:14.961Z,99.90
2019-02-04T12:04:45.931Z,99.90
2019-02-04T12:07:16.560Z,99.90
2019-02-04T12:09:46.808Z,99.90
2019-02-04T12:12:17.035Z,99.90
2019-02-04T12:14:47.660Z,99.90
2019-02-04T12:17:18.091Z,99.90
2019-02-04T12:19:48.163Z,99.90
2019-02-04T12:22:18.397Z,99.90
2019-02-04T12:24:49.548Z,99.90
2019-02-04T12:27:32.076Z,99.90
2019-02-04T12:30:12.224Z,99.90
2019-02-04T12:32:47.872Z,99.90
2019-02-04T12:35:28.186Z,99.90
2019-02-04T12:37:59.532Z,99.90
2019-02-04T12:40:31.495Z,99.90
2019-02-04T12:43:02.717Z,99.90
2019-02-04T12:45:34.534Z,99.90
2019-02-04T12:48:05.111Z,99.90
2019-02-04T12:50:35.889Z,99.90
2019-02-04T12:53:06.808Z,99.90
2019-02-04T12:55:37.082Z,99.90
2019-02-04T12:58:07.650Z,99.90
2019-02-04T13:00:38.232Z,99.90
2019-02-04T13:03:08.398Z,99.90
2019-02-04T13:05:47.170Z,99.90
2019-02-04T13:08:17.336Z,99.90
2019-02-04T13:10:48.518Z,99.90
2019-02-04T13:13:22.072Z,99.90
2019-02-04T13:15:52.351Z,99.90
2019-02-04T13:18:23.076Z,99.90
2019-02-04T13:20:53.277Z,99.90
2019-02-04T13:23:23.309Z,99.90
2019-02-04T13:25:53.450Z,99.90
2019-02-04T13:28:23.869Z,99.90
2019-02-04T13:30:54.003Z,99.90
2019-02-04T13:33:24.314Z,99.90
2019-02-04T13:35:54.344Z,99.90
2019-02-04T13:38:24.620Z,99.90
2019-02-04T13:41:07.239Z,99.90
2019-02-04T13:43:27.831Z,99.90
2019-02-04T13:45:59.188Z,99.90
2019-02-04T13:48:29.846Z,99.90
2019-02-04T13:51:00.061Z,99.90
2019-02-04T13:53:42.000Z,99.90
2019-02-04T13:56:12.135Z,99.90
2019-02-04T13:58:42.312Z,99.90
2019-02-04T14:01:12.450Z,99.90
2019-02-04T14:03:42.658Z,99.90
2019-02-04T14:06:12.848Z,99.90
2019-02-04T14:08:44.559Z,99.90
2019-02-04T14:11:15.839Z,99.90
2019-02-04T14:13:49.064Z,99.90
2019-02-04T14:16:19.163Z,99.90
2019-02-04T14:18:52.178Z,99.90
2019-02-04T14:21:22.621Z,99.90
2019-02-04T14:23:52.791Z,99.90
2019-02-04T14:26:23.058Z,99.90
2019-02-04T14:28:53.815Z,99.90
2019-02-04T14:31:24.258Z,99.90
2019-02-04T14:33:54.573Z,99.90
2019-02-04T14:36:24.741Z,99.90
2019-02-04T14:38:54.911Z,99.90
2019-02-04T14:41:26.010Z,99.90
2019-02-04T14:44:03.071Z,99.90
2019-02-04T14:46:52.349Z,99.90
2019-02-04T14:49:50.065Z,99.90
2019-02-04T14:52:36.879Z,99.90
2019-02-04T14:55:30.397Z,99.90
2019-02-04T14:58:27.139Z,99.90
2019-02-04T15:01:35.547Z,99.90
2019-02-04T15:04:38.768Z,99.90
2019-02-04T15:07:46.781Z,99.90
2019-02-04T15:10:29.959Z,99.90
2019-02-04T15:13:30.773Z,99.90
2019-02-04T15:16:32.520Z,99.90
2019-02-04T15:19:40.910Z,99.70
2019-02-04T15:22:36.939Z,99.70
2019-02-04T15:25:46.272Z,99.90
2019-02-04T15:28:36.750Z,99.90
2019-02-04T15:31:38.015Z,99.90
2019-02-04T15:34:36.724Z,99.90
2019-02-04T15:37:16.535Z,99.90
2019-02-04T15:40:01.094Z,99.80
2019-02-04T15:43:09.830Z,99.70
2019-02-04T15:50:53.049Z,99.70
2019-02-04T15:53:43.958Z,99.80
2019-02-04T15:56:17.523Z,99.90
2019-02-04T15:58:47.579Z,99.80
2019-02-04T16:01:17.752Z,99.80
2019-02-04T16:03:49.098Z,99.90
2019-02-04T16:06:19.326Z,99.80
2019-02-04T16:08:59.035Z,99.50
2019-02-04T16:11:43.667Z,99.70
2019-02-04T16:14:15.332Z,99.60
2019-02-04T16:16:49.018Z,99.90
2019-02-04T16:19:19.755Z,99.90
2019-02-04T16:21:52.706Z,99.90
2019-02-04T16:24:23.678Z,99.90
2019-02-04T16:27:12.287Z,99.90
2019-02-04T16:30:04.346Z,99.90
2019-02-04T16:32:52.783Z,99.90
2019-02-04T16:35:47.928Z,99.90
2019-02-04T16:38:28.510Z,99.90
2019-02-04T16:41:01.468Z,99.90
2019-02-04T16:43:44.174Z,99.90
2019-02-04T16:46:29.677Z,99.90
2019-02-04T16:53:35.029Z,99.90
2019-02-04T16:56:24.590Z,99.90
2019-02-04T16:59:17.676Z,99.90
2019-02-04T17:02:09.067Z,99.90
2019-02-04T17:04:57.606Z,99.90
2019-02-04T17:07:50.639Z,99.90
2019-02-04T17:10:50.832Z,99.90
2019-02-04T17:13:48.867Z,99.90
2019-02-04T17:16:36.881Z,99.90
2019-02-04T17:19:09.647Z,99.90
2019-02-04T17:21:42.167Z,99.90
2019-02-04T17:24:12.678Z,99.90
2019-02-04T17:26:42.807Z,99.90
2019-02-04T17:29:16.414Z,99.90
2019-02-04T17:31:46.678Z,99.90
2019-02-04T17:34:17.423Z,99.90
2019-02-04T17:36:48.099Z,99.70
2019-02-04T17:39:19.490Z,99.70
2019-02-04T17:41:52.050Z,99.80
2019-02-04T17:44:22.290Z,99.10
2019-02-04T17:46:54.127Z,99.40
2019-02-04T17:49:24.383Z,98.90
2019-02-04T17:51:54.749Z,98.80
2019-02-04T17:54:25.280Z,98.70
2019-02-04T17:56:55.467Z,98.80
2019-02-04T17:59:25.448Z,98.30
2019-02-04T18:02:01.427Z,98.50
2019-02-04T18:04:39.620Z,98.60
2019-02-04T18:07:30.634Z,98.40
2019-02-04T18:10:24.125Z,98.50
2019-02-04T18:12:55.409Z,98.40
2019-02-04T18:16:00.126Z,98.10
2019-02-04T18:19:09.357Z,97.30
2019-02-04T18:22:11.728Z,97.60
2019-02-04T18:24:47.279Z,97.90
2019-02-04T18:27:38.072Z,97.60
2019-02-04T18:30:38.264Z,96.70
2019-02-04T18:33:16.223Z,95.50
2019-02-04T18:36:19.319Z,95.80
2019-02-04T18:38:51.710Z,96.20
2019-02-04T18:41:21.882Z,97.10
2019-02-04T18:43:56.896Z,97.40
2019-02-04T18:46:29.238Z,97.70
2019-02-04T18:48:59.361Z,96.40
2019-02-04T18:51:51.719Z,96.10
2019-02-04T18:54:41.717Z,96.20
2019-02-04T18:57:35.034Z,96.20
2019-02-04T19:00:49.084Z,96.90
2019-02-04T19:03:35.285Z,97.40
2019-02-04T19:06:11.507Z,97.60
2019-02-04T19:08:46.426Z,97.30
2019-02-04T19:11:30.576Z,97.50
2019-02-04T19:14:15.386Z,96.70
2019-02-04T19:16:57.537Z,96.80
2019-02-04T19:19:38.031Z,94.40
2019-02-04T19:22:21.308Z,94.10
2019-02-04T19:24:58.701Z,95.30
2019-02-04T19:27:43.348Z,94.60
2019-02-04T19:30:41.386Z,95.50
2019-02-04T19:33:17.021Z,95.60
2019-02-04T19:35:49.526Z,95.30
2019-02-04T19:38:49.110Z,95.00
2019-02-04T19:42:02.947Z,95.10
2019-02-04T19:45:01.338Z,95.90
2019-02-04T19:47:57.377Z,96.50
2019-02-04T19:51:20.680Z,96.70
2019-02-04T19:54:21.686Z,96.80
2019-02-04T19:56:50.131Z,96.10
2019-02-04T19:59:40.767Z,95.50
2019-02-04T20:02:42.278Z,95.90
2019-02-04T20:05:24.489Z,96.00
2019-02-04T20:08:16.783Z,96.20
2019-02-04T20:10:47.993Z,96.50
2019-02-04T20:13:37.071Z,96.60
2019-02-04T20:16:43.738Z,96.30
2019-02-04T20:19:31.341Z,95.30
2019-02-04T20:22:02.076Z,94.50
2019-02-04T20:24:33.502Z,93.80
2019-02-04T20:27:03.867Z,93.80
2019-02-04T20:29:34.323Z,94.10
2019-02-04T20:32:09.456Z,94.60
2019-02-04T20:35:00.805Z,95.10
2019-02-04T20:38:04.824Z,95.40
2019-02-04T20:40:35.934Z,95.40
2019-02-04T20:43:06.960Z,95.70
2019-02-04T20:45:56.374Z,96.10
2019-02-04T20:48:44.067Z,96.20
2019-02-04T20:51:25.540Z,96.50
2019-02-04T20:54:28.426Z,97.10
2019-02-04T20:57:24.750Z,96.00
2019-02-04T21:00:21.150Z,96.30
2019-02-04T21:03:18.479Z,96.50
2019-02-04T21:06:12.450Z,96.70
2019-02-04T21:08:56.720Z,96.10
2019-02-04T21:11:39.321Z,96.40
2019-02-04T21:14:21.103Z,96.50
2019-02-04T21:17:03.122Z,96.70
2019-02-04T21:19:38.798Z,96.80
2019-02-04T21:22:24.706Z,97.20
2019-02-04T21:25:10.835Z,97.30
2019-02-04T21:27:52.334Z,96.50
2019-02-04T21:30:42.043Z,96.80
2019-02-04T21:33:30.279Z,96.80
2019-02-04T21:36:13.642Z,96.90
2019-02-04T21:38:45.278Z,96.40
2019-02-04T21:41:19.951Z,96.60
2019-02-04T21:43:51.172Z,95.80
2019-02-04T21:46:21.986Z,95.80
2019-02-04T21:48:52.069Z,96.00
2019-02-04T21:51:22.303Z,96.20
2019-02-04T21:53:53.759Z,96.40
2019-02-04T21:56:27.390Z,96.20
2019-02-04T21:58:57.763Z,96.00
2019-02-04T22:01:27.966Z,95.70
2019-02-04T22:04:01.859Z,95.90
2019-02-04T22:06:37.991Z,95.80
2019-02-04T22:09:11.000Z,94.80
2019-02-04T22:11:43.457Z,95.30
2019-02-04T22:14:17.009Z,95.70
2019-02-04T22:16:51.165Z,95.90
2019-02-04T22:19:22.828Z,96.20
2019-02-04T22:21:53.296Z,95.10
2019-02-04T22:24:23.583Z,93.70
2019-02-04T22:26:53.573Z,94.20
2019-02-04T22:29:25.173Z,94.90
2019-02-04T22:31:57.853Z,94.90
2019-02-04T22:34:28.366Z,95.20
2019-02-04T22:37:17.522Z,94.40
2019-02-04T22:39:47.827Z,94.70
2019-02-04T22:42:17.876Z,94.80
2019-02-04T22:44:47.934Z,95.10
2019-02-04T22:47:18.195Z,94.80
2019-02-04T22:49:48.432Z,95.00
2019-02-04T22:52:18.514Z,95.30
2019-02-04T22:54:48.700Z,95.50
2019-02-04T22:57:18.786Z,94.40
2019-02-04T22:59:48.765Z,94.30
2019-02-04T23:02:18.905Z,94.80
2019-02-04T23:04:50.209Z,94.20
2019-02-04T23:07:20.456Z,94.90
2019-02-04T23:09:50.806Z,94.60
2019-02-04T23:12:21.079Z,95.00
2019-02-04T23:14:51.076Z,95.40
2019-02-04T23:17:21.275Z,95.20
2019-02-04T23:19:51.363Z,94.80
2019-02-04T23:22:21.439Z,95.10
2019-02-04T23:24:51.706Z,95.50
2019-02-04T23:27:22.081Z,95.30
2019-02-04T23:29:54.646Z,95.80
2019-02-04T23:32:24.906Z,95.70
2019-02-04T23:34:54.887Z,95.20
2019-02-04T23:37:25.229Z,95.30
2019-02-04T23:39:57.066Z,95.40
2019-02-04T23:42:27.206Z,95.80
2019-02-04T23:44:57.246Z,96.30
2019-02-04T23:47:39.579Z,96.10
2019-02-04T23:50:10.210Z,96.10
2019-02-04T23:52:41.482Z,95.70
2019-02-04T23:55:11.845Z,95.50
2019-02-04T23:57:41.914Z,95.30
